Mississippi Star — 9HA2441 — position and weather

sailwx.info

Track history (hours):
 
Tides and Currents Weather Stations Pressure Air Temp Water Temp Dewpoint Dewpoint Depression Visibility Wind Speed Wind Dir Waves Ship Positions

Mississippi Star

Last reported at 2016-Jun-27 07:31 UTC. Time now 2016-Jun-27 07:53 UTC.
Position N 49°34' W 000°08'.

Length 128 m; draft 7.1 m.

Type: Ship. MMSI: 248621000.

Date/timePositionNaut miles runAvg speedWind from/ knotsBaromVisibWave heightAir tempDewpointWater temp
2016-Jun-27 07:31N 49°34' W 000°08'0 0.1
2016-Jun-27 06:31N 49°35' W 000°08'0 0.0
2016-Jun-27 05:31N 49°35' W 000°08'0 0.0
2016-Jun-27 04:31N 49°35' W 000°08'0 0.0
2016-Jun-27 03:31N 49°35' W 000°08'0 0.0
2016-Jun-27 02:31N 49°35' W 000°08'0 0.0
2016-Jun-27 01:31N 49°35' W 000°08'0 0.0
2016-Jun-27 00:31N 49°35' W 000°08'0 0.0
2016-Jun-26 23:31N 49°35' W 000°08'0 0.0
2016-Jun-26 22:31N 49°35' W 000°08'0 0.0
2016-Jun-26 21:31N 49°35' W 000°08'0 0.1
2016-Jun-26 20:31N 49°34' W 000°08'0 0.1
2016-Jun-26 19:31N 49°34' W 000°08'0 0.0
2016-Jun-26 18:31N 49°34' W 000°08'0 0.1
2016-Jun-26 17:31N 49°34' W 000°08'0 0.1
2016-Jun-26 16:31N 49°34' W 000°08'0 0.0
2016-Jun-26 15:31N 49°34' W 000°08'0 0.0
2016-Jun-26 14:31N 49°35' W 000°08'0 0.0
2016-Jun-26 13:31N 49°35' W 000°08'0 0.0
2016-Jun-26 12:31N 49°35' W 000°08'0 0.0
2016-Jun-26 11:31N 49°35' W 000°08'0 0.0
2016-Jun-26 10:31N 49°34' W 000°08'0 0.0
2016-Jun-26 09:31N 49°34' W 000°08'0 0.1
2016-Jun-26 08:31N 49°34' W 000°08'0 0.0
2016-Jun-26 07:31N 49°34' W 000°08'0 0.0
2016-Jun-26 06:31N 49°34' W 000°08'0 0.0
2016-Jun-26 05:31N 49°34' W 000°08'0 0.1
2016-Jun-26 04:31N 49°34' W 000°08'0 0.0
2016-Jun-26 03:31N 49°34' W 000°08'0 0.0
2016-Jun-26 02:31N 49°35' W 000°08'0 0.0
2016-Jun-26 01:34N 49°35' W 000°08'0 0.0
2016-Jun-26 00:31N 49°35' W 000°08'0 0.0
2016-Jun-25 23:31N 49°35' W 000°08'0 0.0
2016-Jun-25 22:33N 49°35' W 000°08'0 0.0
2016-Jun-25 21:31N 49°34' W 000°08'0 0.0
2016-Jun-25 20:31N 49°34' W 000°08'0 0.1
2016-Jun-25 19:34N 49°34' W 000°08'0 0.0
2016-Jun-25 18:31N 49°34' W 000°08'0 0.0
2016-Jun-25 17:31N 49°34' W 000°08'0 0.2
2016-Jun-25 16:34N 49°34' W 000°08'3 3.0
2016-Jun-25 15:33N 49°37' W 000°11'1211.9
2016-Jun-25 14:33N 49°46' W 000°23'1211.9
2016-Jun-25 13:33N 49°57' W 000°19'1111.2
2016-Jun-25 12:33N 50°08' W 000°14'1110.6
2016-Jun-25 11:33N 50°18' W 000°09'1110.8
2016-Jun-25 10:33N 50°28' W 000°01'1110.8
2016-Jun-25 09:30N 50°32' E 000°16'3812.8
2016-Jun-25 06:33N 50°53' E 001°06'1212.5
2016-Jun-25 05:33N 51°00' E 001°21'1110.6
2016-Jun-25 04:33N 51°08' E 001°33'9 9.3
2016-Jun-25 03:33N 51°13' E 001°45'1010.2
2016-Jun-25 02:33N 51°22' E 001°53'1111.4
2016-Jun-25 01:33N 51°31' E 002°04'1312.8
2016-Jun-25 00:33N 51°40' E 002°19'1412.8
2016-Jun-24 23:30N 51°49' E 002°36'1212.0
2016-Jun-24 22:32N 51°46' E 002°54'1312.9
2016-Jun-24 21:30N 51°51' E 003°15'7 2.4
2016-Jun-24 18:32N 51°53' E 003°26'0 0.0
2016-Jun-24 17:11N 51°53' E 003°26'0 0.0
2016-Jun-24 16:16N 51°53' E 003°26'0 0.0
2016-Jun-24 12:23N 51°53' E 003°26'0 0.0
2016-Jun-24 09:06N 51°53' E 003°26'0 0.2
2016-Jun-24 08:26N 51°53' E 003°26'0 0.0
2016-Jun-24 03:11N 51°53' E 003°26'0 0.0
2016-Jun-24 01:26N 51°53' E 003°26'0 0.1
2016-Jun-24 00:20N 51°53' E 003°26'0 0.0
2016-Jun-23 22:29N 51°53' E 003°26'0 0.0
2016-Jun-23 21:32N 51°53' E 003°26'0 0.1
2016-Jun-23 20:26N 51°53' E 003°26'0 0.0
2016-Jun-23 19:15N 51°53' E 003°26'6 8.6
2016-Jun-23 18:32N 51°53' E 003°16'10 8.8
2016-Jun-23 17:23N 52°02' E 003°08'2011.1
2016-Jun-23 15:33N 52°06' E 003°40'2 1.7
2016-Jun-23 14:12N 52°07' E 003°42'0 0.2
2016-Jun-23 13:33N 52°07' E 003°42'0 0.0
2016-Jun-23 12:33N 52°07' E 003°42'0 0.0
2016-Jun-23 11:33N 52°07' E 003°42'0 0.0
2016-Jun-23 10:24N 52°07' E 003°42'0 0.0
2016-Jun-23 09:30N 52°07' E 003°42'0 0.0
2016-Jun-23 08:18N 52°07' E 003°42'0 0.0
2016-Jun-23 07:27N 52°07' E 003°42'0 0.1
2016-Jun-23 05:33N 52°07' E 003°42'0 0.0
2016-Jun-23 04:09N 52°07' E 003°42'0 0.0
2016-Jun-23 03:33N 52°07' E 003°42'0 0.0
2016-Jun-23 02:27N 52°07' E 003°42'0 0.1
2016-Jun-23 01:30N 52°07' E 003°42'0 0.1
2016-Jun-23 00:33N 52°07' E 003°42'0 0.0
2016-Jun-22 23:33N 52°07' E 003°42'0 0.0
2016-Jun-22 22:33N 52°07' E 003°42'0 0.0
2016-Jun-22 20:33N 52°07' E 003°42'0 0.0
2016-Jun-22 19:27N 52°07' E 003°42'0 0.1
2016-Jun-22 18:30N 52°07' E 003°42'0 0.0
2016-Jun-22 17:30N 52°07' E 003°42'0 0.0
2016-Jun-22 15:06N 52°07' E 003°42'0 0.0
2016-Jun-22 14:18N 52°07' E 003°42'0 0.0
2016-Jun-22 13:12N 52°07' E 003°42'0 0.2
2016-Jun-22 12:27N 52°07' E 003°42'0 0.0
2016-Jun-22 11:15N 52°07' E 003°42'0 0.0
2016-Jun-22 10:06N 52°07' E 003°42'0 0.0
2016-Jun-22 09:33N 52°07' E 003°42'0 0.0
2016-Jun-22 08:18N 52°07' E 003°42'0 0.1
2016-Jun-22 05:24N 52°07' E 003°42'0 0.0
2016-Jun-22 04:33N 52°07' E 003°42'0 0.0
2016-Jun-22 03:30N 52°07' E 003°42'0 0.0
2016-Jun-22 01:30N 52°07' E 003°42'0 0.0
2016-Jun-22 00:24N 52°07' E 003°42'0 0.1
2016-Jun-21 23:33N 52°07' E 003°42'0 0.0
2016-Jun-21 22:24N 52°07' E 003°42'0 0.0
2016-Jun-21 21:33N 52°07' E 003°42'0 0.0
2016-Jun-21 20:33N 52°07' E 003°42'0 0.2
2016-Jun-21 19:33N 52°07' E 003°42'0 0.0
2016-Jun-21 18:33N 52°07' E 003°42'0 0.0
2016-Jun-21 17:24N 52°07' E 003°42'0 0.0
2016-Jun-21 16:21N 52°07' E 003°42'0 0.0
2016-Jun-21 14:18N 52°07' E 003°42'0 0.0
2016-Jun-21 12:03N 52°07' E 003°42'0 0.1
2016-Jun-21 11:18N 52°07' E 003°42'0 0.0
2016-Jun-21 10:27N 52°07' E 003°42'0 0.0
2016-Jun-21 09:27N 52°07' E 003°42'0 0.0
2016-Jun-21 08:24N 52°07' E 003°42'0 0.0
2016-Jun-21 07:33N 52°07' E 003°42'0 0.1
2016-Jun-21 04:33N 52°07' E 003°42'0 0.0
2016-Jun-21 03:30N 52°07' E 003°42'0 0.0
2016-Jun-21 02:06N 52°07' E 003°42'0 0.0
2016-Jun-21 01:33N 52°07' E 003°42'0 0.0
2016-Jun-21 00:33N 52°07' E 003°42'0 0.0
2016-Jun-20 23:33N 52°07' E 003°42'0 0.1
2016-Jun-20 22:33N 52°07' E 003°42'0 0.0
2016-Jun-20 21:24N 52°07' E 003°42'0 0.0
2016-Jun-20 20:33N 52°07' E 003°42'0 0.1
2016-Jun-20 19:33N 52°07' E 003°42'0 0.2
2016-Jun-20 18:33N 52°07' E 003°43'9 9.4
2016-Jun-20 17:33N 52°02' E 003°55'1111.2
2016-Jun-20 16:33N 51°57' E 004°11'6 5.7
2016-Jun-20 15:33N 51°53' E 004°18'0 0.0
2016-Jun-18 23:26N 51°53' E 004°18'1 0.7
2016-Jun-18 22:33N 51°53' E 004°18'9 8.8
2016-Jun-18 21:34N 51°58' E 004°07'1110.8
2016-Jun-18 20:33N 52°00' E 003°50'10 9.3
2016-Jun-18 19:32N 52°07' E 003°39'3 2.8
2016-Jun-18 18:30N 52°10' E 003°40'0 0.0
2016-Jun-18 07:27N 52°10' E 003°40'0 0.0
2016-Jun-18 06:33N 52°10' E 003°40'0 0.0
2016-Jun-18 02:30N 52°11' E 003°40'0 0.0
2016-Jun-17 22:30N 52°10' E 003°40'0 0.1
2016-Jun-17 21:30N 52°10' E 003°40'0 0.0
2016-Jun-17 20:30N 52°10' E 003°40'0 0.0
2016-Jun-17 18:12N 52°10' E 003°40'0 0.0
2016-Jun-17 15:33N 52°10' E 003°40'9 6.7
2016-Jun-17 14:14N 52°18' E 003°47'911.4
2016-Jun-17 13:25N 52°27' E 003°50'8 9.0
2016-Jun-17 12:33N 52°31' E 004°01'1111.1
2016-Jun-17 11:33N 52°31' E 004°19'0 0.1
2016-Jun-17 10:32N 52°31' E 004°19'0 0.0
2016-Jun-17 09:32N 52°31' E 004°19'0 0.0
2016-Jun-17 08:32N 52°31' E 004°19'0 0.0
2016-Jun-17 07:32N 52°31' E 004°19'  
Track history (hours):
 
Tides and Currents Weather Stations Pressure Air Temp Water Temp Dewpoint Dewpoint Depression Visibility Wind Speed Wind Dir Waves Ship Positions

Mississippi Star

Last reported at 2016-Jun-27 07:31 UTC. Time now 2016-Jun-27 07:53 UTC.
Position N 49°34' W 000°08'.

Length 128 m; draft 7.1 m.

Type: Ship. MMSI: 248621000.

Date/timePositionNaut miles runAvg speedWind from/ knotsBaromVisibWave heightAir tempDewpointWater temp
2016-Jun-27 07:31N 49°34' W 000°08'0 0.1
2016-Jun-27 06:31N 49°35' W 000°08'0 0.0
2016-Jun-27 05:31N 49°35' W 000°08'0 0.0
2016-Jun-27 04:31N 49°35' W 000°08'0 0.0
2016-Jun-27 03:31N 49°35' W 000°08'0 0.0
2016-Jun-27 02:31N 49°35' W 000°08'0 0.0
2016-Jun-27 01:31N 49°35' W 000°08'0 0.0
2016-Jun-27 00:31N 49°35' W 000°08'0 0.0
2016-Jun-26 23:31N 49°35' W 000°08'0 0.0
2016-Jun-26 22:31N 49°35' W 000°08'0 0.0
2016-Jun-26 21:31N 49°35' W 000°08'0 0.1
2016-Jun-26 20:31N 49°34' W 000°08'0 0.1
2016-Jun-26 19:31N 49°34' W 000°08'0 0.0
2016-Jun-26 18:31N 49°34' W 000°08'0 0.1
2016-Jun-26 17:31N 49°34' W 000°08'0 0.1
2016-Jun-26 16:31N 49°34' W 000°08'0 0.0
2016-Jun-26 15:31N 49°34' W 000°08'0 0.0
2016-Jun-26 14:31N 49°35' W 000°08'0 0.0
2016-Jun-26 13:31N 49°35' W 000°08'0 0.0
2016-Jun-26 12:31N 49°35' W 000°08'0 0.0
2016-Jun-26 11:31N 49°35' W 000°08'0 0.0
2016-Jun-26 10:31N 49°34' W 000°08'0 0.0
2016-Jun-26 09:31N 49°34' W 000°08'0 0.1
2016-Jun-26 08:31N 49°34' W 000°08'0 0.0
2016-Jun-26 07:31N 49°34' W 000°08'0 0.0
2016-Jun-26 06:31N 49°34' W 000°08'0 0.0
2016-Jun-26 05:31N 49°34' W 000°08'0 0.1
2016-Jun-26 04:31N 49°34' W 000°08'0 0.0
2016-Jun-26 03:31N 49°34' W 000°08'0 0.0
2016-Jun-26 02:31N 49°35' W 000°08'0 0.0
2016-Jun-26 01:34N 49°35' W 000°08'0 0.0
2016-Jun-26 00:31N 49°35' W 000°08'0 0.0
2016-Jun-25 23:31N 49°35' W 000°08'0 0.0
2016-Jun-25 22:33N 49°35' W 000°08'0 0.0
2016-Jun-25 21:31N 49°34' W 000°08'0 0.0
2016-Jun-25 20:31N 49°34' W 000°08'0 0.1
2016-Jun-25 19:34N 49°34' W 000°08'0 0.0
2016-Jun-25 18:31N 49°34' W 000°08'0 0.0
2016-Jun-25 17:31N 49°34' W 000°08'0 0.2
2016-Jun-25 16:34N 49°34' W 000°08'3 3.0
2016-Jun-25 15:33N 49°37' W 000°11'1211.9
2016-Jun-25 14:33N 49°46' W 000°23'1211.9
2016-Jun-25 13:33N 49°57' W 000°19'1111.2
2016-Jun-25 12:33N 50°08' W 000°14'1110.6
2016-Jun-25 11:33N 50°18' W 000°09'1110.8
2016-Jun-25 10:33N 50°28' W 000°01'1110.8
2016-Jun-25 09:30N 50°32' E 000°16'3812.8
2016-Jun-25 06:33N 50°53' E 001°06'1212.5
2016-Jun-25 05:33N 51°00' E 001°21'1110.6
2016-Jun-25 04:33N 51°08' E 001°33'9 9.3
2016-Jun-25 03:33N 51°13' E 001°45'1010.2
2016-Jun-25 02:33N 51°22' E 001°53'1111.4
2016-Jun-25 01:33N 51°31' E 002°04'1312.8
2016-Jun-25 00:33N 51°40' E 002°19'1412.8
2016-Jun-24 23:30N 51°49' E 002°36'1212.0
2016-Jun-24 22:32N 51°46' E 002°54'1312.9
2016-Jun-24 21:30N 51°51' E 003°15'7 2.4
2016-Jun-24 18:32N 51°53' E 003°26'0 0.0
2016-Jun-24 17:11N 51°53' E 003°26'0 0.0
2016-Jun-24 16:16N 51°53' E 003°26'0 0.0
2016-Jun-24 12:23N 51°53' E 003°26'0 0.0
2016-Jun-24 09:06N 51°53' E 003°26'0 0.2
2016-Jun-24 08:26N 51°53' E 003°26'0 0.0
2016-Jun-24 03:11N 51°53' E 003°26'0 0.0
2016-Jun-24 01:26N 51°53' E 003°26'0 0.1
2016-Jun-24 00:20N 51°53' E 003°26'0 0.0
2016-Jun-23 22:29N 51°53' E 003°26'0 0.0
2016-Jun-23 21:32N 51°53' E 003°26'0 0.1
2016-Jun-23 20:26N 51°53' E 003°26'0 0.0
2016-Jun-23 19:15N 51°53' E 003°26'6 8.6
2016-Jun-23 18:32N 51°53' E 003°16'10 8.8
2016-Jun-23 17:23N 52°02' E 003°08'2011.1
2016-Jun-23 15:33N 52°06' E 003°40'2 1.7
2016-Jun-23 14:12N 52°07' E 003°42'0 0.2
2016-Jun-23 13:33N 52°07' E 003°42'0 0.0
2016-Jun-23 12:33N 52°07' E 003°42'0 0.0
2016-Jun-23 11:33N 52°07' E 003°42'0 0.0
2016-Jun-23 10:24N 52°07' E 003°42'0 0.0
2016-Jun-23 09:30N 52°07' E 003°42'0 0.0
2016-Jun-23 08:18N 52°07' E 003°42'0 0.0
2016-Jun-23 07:27N 52°07' E 003°42'0 0.1
2016-Jun-23 05:33N 52°07' E 003°42'0 0.0
2016-Jun-23 04:09N 52°07' E 003°42'0 0.0
2016-Jun-23 03:33N 52°07' E 003°42'0 0.0
2016-Jun-23 02:27N 52°07' E 003°42'0 0.1
2016-Jun-23 01:30N 52°07' E 003°42'0 0.1
2016-Jun-23 00:33N 52°07' E 003°42'0 0.0
2016-Jun-22 23:33N 52°07' E 003°42'0 0.0
2016-Jun-22 22:33N 52°07' E 003°42'0 0.0
2016-Jun-22 20:33N 52°07' E 003°42'0 0.0
2016-Jun-22 19:27N 52°07' E 003°42'0 0.1
2016-Jun-22 18:30N 52°07' E 003°42'0 0.0
2016-Jun-22 17:30N 52°07' E 003°42'0 0.0
2016-Jun-22 15:06N 52°07' E 003°42'0 0.0
2016-Jun-22 14:18N 52°07' E 003°42'0 0.0
2016-Jun-22 13:12N 52°07' E 003°42'0 0.2
2016-Jun-22 12:27N 52°07' E 003°42'0 0.0
2016-Jun-22 11:15N 52°07' E 003°42'0 0.0
2016-Jun-22 10:06N 52°07' E 003°42'0 0.0
2016-Jun-22 09:33N 52°07' E 003°42'0 0.0
2016-Jun-22 08:18N 52°07' E 003°42'0 0.1
2016-Jun-22 05:24N 52°07' E 003°42'0 0.0
2016-Jun-22 04:33N 52°07' E 003°42'0 0.0
2016-Jun-22 03:30N 52°07' E 003°42'0 0.0
2016-Jun-22 01:30N 52°07' E 003°42'0 0.0
2016-Jun-22 00:24N 52°07' E 003°42'0 0.1
2016-Jun-21 23:33N 52°07' E 003°42'0 0.0
2016-Jun-21 22:24N 52°07' E 003°42'0 0.0
2016-Jun-21 21:33N 52°07' E 003°42'0 0.0
2016-Jun-21 20:33N 52°07' E 003°42'0 0.2
2016-Jun-21 19:33N 52°07' E 003°42'0 0.0
2016-Jun-21 18:33N 52°07' E 003°42'0 0.0
2016-Jun-21 17:24N 52°07' E 003°42'0 0.0
2016-Jun-21 16:21N 52°07' E 003°42'0 0.0
2016-Jun-21 14:18N 52°07' E 003°42'0 0.0
2016-Jun-21 12:03N 52°07' E 003°42'0 0.1
2016-Jun-21 11:18N 52°07' E 003°42'0 0.0
2016-Jun-21 10:27N 52°07' E 003°42'0 0.0
2016-Jun-21 09:27N 52°07' E 003°42'0 0.0
2016-Jun-21 08:24N 52°07' E 003°42'0 0.0
2016-Jun-21 07:33N 52°07' E 003°42'0 0.1
2016-Jun-21 04:33N 52°07' E 003°42'0 0.0
2016-Jun-21 03:30N 52°07' E 003°42'0 0.0
2016-Jun-21 02:06N 52°07' E 003°42'0 0.0
2016-Jun-21 01:33N 52°07' E 003°42'0 0.0
2016-Jun-21 00:33N 52°07' E 003°42'0 0.0
2016-Jun-20 23:33N 52°07' E 003°42'0 0.1
2016-Jun-20 22:33N 52°07' E 003°42'0 0.0
2016-Jun-20 21:24N 52°07' E 003°42'0 0.0
2016-Jun-20 20:33N 52°07' E 003°42'0 0.1
2016-Jun-20 19:33N 52°07' E 003°42'0 0.2
2016-Jun-20 18:33N 52°07' E 003°43'9 9.4
2016-Jun-20 17:33N 52°02' E 003°55'1111.2
2016-Jun-20 16:33N 51°57' E 004°11'6 5.7
2016-Jun-20 15:33N 51°53' E 004°18'0 0.0
2016-Jun-18 23:26N 51°53' E 004°18'1 0.7
2016-Jun-18 22:33N 51°53' E 004°18'9 8.8
2016-Jun-18 21:34N 51°58' E 004°07'1110.8
2016-Jun-18 20:33N 52°00' E 003°50'10 9.3
2016-Jun-18 19:32N 52°07' E 003°39'3 2.8
2016-Jun-18 18:30N 52°10' E 003°40'0 0.0
2016-Jun-18 07:27N 52°10' E 003°40'0 0.0
2016-Jun-18 06:33N 52°10' E 003°40'0 0.0
2016-Jun-18 02:30N 52°11' E 003°40'0 0.0
2016-Jun-17 22:30N 52°10' E 003°40'0 0.1
2016-Jun-17 21:30N 52°10' E 003°40'0 0.0
2016-Jun-17 20:30N 52°10' E 003°40'0 0.0
2016-Jun-17 18:12N 52°10' E 003°40'0 0.0
2016-Jun-17 15:33N 52°10' E 003°40'9 6.7
2016-Jun-17 14:14N 52°18' E 003°47'911.4
2016-Jun-17 13:25N 52°27' E 003°50'8 9.0
2016-Jun-17 12:33N 52°31' E 004°01'1111.1
2016-Jun-17 11:33N 52°31' E 004°19'0 0.1
2016-Jun-17 10:32N 52°31' E 004°19'0 0.0
2016-Jun-17 09:32N 52°31' E 004°19'0 0.0
2016-Jun-17 08:32N 52°31' E 004°19'0 0.0
2016-Jun-17 07:32N 52°31' E 004°19'  

Dump ship's entire track history